Time;durP1;ratioP1;P1;durP2;ratioP2;P2;SDS_P1;SDS_P2;PMS_P1;PMS_P2;Temp;Humidity;BMP_temperature;BMP_pressure;BME280_temperature;BME280_humidity;BME280_pressure;Samples;Min_cycle;Max_cycle;Signal;HPM_P1;HPM_P2
2022/12/06 00:00:50;;;;;;;247.82;136.32;;;4.70;1.00;;;;;;4968087;28;20085;-78
2022/12/06 00:03:17;;;;;;;256.70;140.27;;;4.70;1.00;;;;;;4945001;28;20039;-80
2022/12/06 00:05:46;;;;;;;302.42;165.30;;;4.70;1.00;;;;;;4944822;28;20146;-79
2022/12/06 00:08:13;;;;;;;285.10;154.07;;;4.70;1.00;;;;;;4968823;28;20138;-79
2022/12/06 00:10:40;;;;;;;266.67;143.60;;;4.60;1.00;;;;;;4944716;28;20045;-79
2022/12/06 00:13:08;;;;;;;283.50;153.50;;;4.60;1.00;;;;;;4944101;28;20475;-79
2022/12/06 00:15:36;;;;;;;263.05;142.65;;;4.50;1.00;;;;;;4963162;28;20054;-79
2022/12/06 00:18:03;;;;;;;236.50;132.82;;;4.60;1.00;;;;;;4958986;28;20038;-79
2022/12/06 00:20:31;;;;;;;254.63;134.32;;;4.50;99.90;;;;;;4961905;28;20059;-79
2022/12/06 00:23:01;;;;;;;263.95;141.80;;;4.50;99.90;;;;;;4961974;28;20058;-80
2022/12/06 00:25:28;;;;;;;267.30;143.05;;;4.40;1.00;;;;;;4961348;28;20122;-79
2022/12/06 00:27:55;;;;;;;300.05;164.07;;;4.40;99.90;;;;;;4961175;28;20050;-80
2022/12/06 00:30:22;;;;;;;345.67;190.30;;;4.40;99.90;;;;;;4944302;28;20419;-80
2022/12/06 00:32:49;;;;;;;338.23;183.75;;;4.40;99.90;;;;;;4943339;28;20566;-79
2022/12/06 00:35:16;;;;;;;330.98;180.70;;;4.40;99.90;;;;;;4972500;28;20055;-78
2022/12/06 00:37:43;;;;;;;320.42;176.15;;;4.40;1.00;;;;;;4977941;28;20532;-79
2022/12/06 00:40:13;;;;;;;302.67;169.43;;;4.40;1.00;;;;;;4960490;28;20078;-80
2022/12/06 00:42:40;;;;;;;301.67;162.90;;;4.40;1.00;;;;;;4958906;28;20039;-78
2022/12/06 00:45:09;;;;;;;288.65;163.20;;;4.40;1.00;;;;;;4959606;28;20571;-79
2022/12/06 00:47:36;;;;;;;294.20;166.13;;;4.40;1.00;;;;;;4944926;28;20047;-79
2022/12/06 00:50:03;;;;;;;299.45;165.75;;;4.40;1.00;;;;;;4961083;28;20050;-79
2022/12/06 00:52:30;;;;;;;319.33;177.45;;;4.40;99.90;;;;;;4963647;28;20419;-79
2022/12/06 00:54:57;;;;;;;294.45;162.15;;;4.40;99.90;;;;;;4963999;28;20509;-80
2022/12/06 00:57:26;;;;;;;208.82;118.65;;;4.30;1.00;;;;;;4964860;28;20565;-79
2022/12/06 00:59:53;;;;;;;214.27;125.50;;;4.30;1.00;;;;;;4964703;28;20055;-80
2022/12/06 01:02:20;;;;;;;241.23;135.60;;;4.40;1.00;;;;;;4965489;28;20422;-79
2022/12/06 01:04:48;;;;;;;265.92;148.20;;;4.40;1.00;;;;;;4947632;28;20064;-78
2022/12/06 01:07:15;;;;;;;220.63;127.97;;;4.40;1.00;;;;;;4948313;28;20134;-79
2022/12/06 01:09:42;;;;;;;238.63;130.32;;;4.40;1.00;;;;;;4964783;28;20046;-78
2022/12/06 01:12:09;;;;;;;228.30;126.80;;;4.40;1.00;;;;;;4964292;28;20247;-79
2022/12/06 01:14:38;;;;;;;255.25;134.48;;;4.40;1.00;;;;;;4963756;28;20062;-79
2022/12/06 01:17:05;;;;;;;229.43;126.13;;;4.30;1.00;;;;;;4947311;28;20050;-78
2022/12/06 01:19:32;;;;;;;266.58;140.13;;;4.30;1.00;;;;;;4964902;28;20066;-78
2022/12/06 01:22:00;;;;;;;268.52;136.98;;;4.20;1.00;;;;;;4945830;28;20101;-78
2022/12/06 01:24:27;;;;;;;220.88;120.97;;;4.20;1.00;;;;;;4965500;28;20090;-80
2022/12/06 01:26:54;;;;;;;227.68;122.15;;;4.20;1.00;;;;;;4967431;28;20050;-79
2022/12/06 01:29:22;;;;;;;230.55;121.57;;;4.20;1.00;;;;;;4973482;28;20046;-80
2022/12/06 01:31:50;;;;;;;201.50;114.22;;;4.20;1.00;;;;;;4964145;28;20046;-79
2022/12/06 01:34:18;;;;;;;208.05;113.72;;;4.10;1.00;;;;;;4948091;28;20047;-79
2022/12/06 01:36:45;;;;;;;214.02;123.68;;;4.10;1.00;;;;;;4966257;28;20061;-80
2022/12/06 01:39:13;;;;;;;208.35;119.30;;;4.10;1.00;;;;;;4976614;28;20380;-79
2022/12/06 01:41:40;;;;;;;186.18;108.75;;;4.10;1.00;;;;;;4986296;28;20612;-80
2022/12/06 01:44:23;;;;;;;209.82;116.18;;;4.10;1.00;;;;;;4988296;28;20040;-81
2022/12/06 01:46:52;;;;;;;186.35;103.47;;;4.20;1.00;;;;;;4966267;28;20558;-79
2022/12/06 01:49:23;;;;;;;199.10;113.07;;;4.20;1.00;;;;;;4965633;28;20062;-79
2022/12/06 01:51:56;;;;;;;190.35;111.80;;;4.10;1.00;;;;;;4964374;28;20067;-83
2022/12/06 01:54:25;;;;;;;177.23;110.65;;;4.10;1.00;;;;;;4964250;28;20079;-76
2022/12/06 01:56:56;;;;;;;181.48;106.63;;;4.00;1.00;;;;;;4966780;28;20058;-78
2022/12/06 01:59:25;;;;;;;179.55;106.75;;;3.90;1.00;;;;;;4965197;28;20039;-77
2022/12/06 02:01:54;;;;;;;182.23;109.57;;;3.90;1.00;;;;;;4963941;28;20654;-78
2022/12/06 02:04:23;;;;;;;174.90;109.28;;;3.90;1.00;;;;;;4980780;28;20047;-78
2022/12/06 02:06:52;;;;;;;191.63;114.80;;;4.00;1.00;;;;;;4969423;28;20048;-78
2022/12/06 02:09:21;;;;;;;141.82;86.05;;;4.00;1.00;;;;;;4981572;28;20038;-78
2022/12/06 02:11:48;;;;;;;177.70;104.72;;;4.00;1.00;;;;;;4966956;28;20067;-79
2022/12/06 02:14:19;;;;;;;186.70;105.03;;;4.00;1.00;;;;;;4966405;28;20499;-77
2022/12/06 02:17:11;;;;;;;162.15;91.88;;;4.10;9.70;;;;;;4961796;28;20047;-77
2022/12/06 02:20:11;;;;;;;171.30;92.22;;;4.10;1.00;;;;;;4981117;28;20055;-79
2022/12/06 02:23:06;;;;;;;147.90;81.22;;;4.20;1.00;;;;;;4974317;28;20106;-77
2022/12/06 02:26:01;;;;;;;142.40;78.22;;;4.20;1.00;;;;;;4928363;28;20059;-77
2022/12/06 02:28:55;;;;;;;131.02;74.32;;;4.30;1.00;;;;;;4962289;28;20483;-76
2022/12/06 02:31:29;;;;;;;152.48;83.22;;;4.30;1.00;;;;;;4944858;28;20519;-76
2022/12/06 02:34:02;;;;;;;143.75;81.03;;;4.40;1.00;;;;;;4965735;28;20563;-78
2022/12/06 02:36:34;;;;;;;95.80;53.65;;;4.40;1.00;;;;;;4962951;28;20561;-75
2022/12/06 02:39:08;;;;;;;133.30;75.30;;;4.50;1.00;;;;;;4964316;28;20101;-76
2022/12/06 02:41:41;;;;;;;157.80;84.20;;;4.60;1.00;;;;;;4962499;28;20519;-76
2022/12/06 02:44:16;;;;;;;123.90;68.13;;;4.50;1.00;;;;;;4962234;28;20040;-77
2022/12/06 02:46:46;;;;;;;125.03;68.45;;;4.50;1.00;;;;;;4962576;28;20050;-76
2022/12/06 02:49:14;;;;;;;136.05;76.10;;;4.50;1.00;;;;;;4962645;28;20039;-77
2022/12/06 02:51:41;;;;;;;100.90;55.78;;;4.50;1.00;;;;;;4962385;28;20039;-77
2022/12/06 02:54:10;;;;;;;121.60;62.63;;;4.40;17.80;;;;;;4971513;28;20066;-76
2022/12/06 02:56:37;;;;;;;126.28;67.38;;;4.40;1.00;;;;;;4980176;28;20050;-77
2022/12/06 02:59:05;;;;;;;102.55;55.33;;;4.50;1.00;;;;;;4962495;28;20047;-76
2022/12/06 03:01:35;;;;;;;97.60;54.20;;;4.60;1.00;;;;;;4962559;28;20061;-76
2022/12/06 03:04:30;;;;;;;102.43;56.53;;;4.70;1.00;;;;;;4942715;28;20098;-76
2022/12/06 03:07:10;;;;;;;104.85;54.22;;;4.60;99.90;;;;;;4962224;28;20113;-76
2022/12/06 03:09:51;;;;;;;114.68;63.47;;;4.60;99.90;;;;;;4960971;28;20051;-75
2022/12/06 03:12:29;;;;;;;85.50;48.15;;;4.70;99.90;;;;;;4960090;28;20039;-75
2022/12/06 03:15:04;;;;;;;96.53;52.25;;;4.70;1.00;;;;;;4944287;28;20059;-75
2022/12/06 03:17:37;;;;;;;;;;;4.80;99.90;;;;;;4963155;28;20047;-78
2022/12/06 03:20:12;;;;;;;98.95;54.42;;;4.90;99.90;;;;;;4962331;28;19922;-76
2022/12/06 03:22:42;;;;;;;98.43;49.83;;;4.90;99.90;;;;;;4960314;28;20081;-75
2022/12/06 03:25:11;;;;;;;86.43;43.45;;;5.00;99.90;;;;;;4960033;28;20091;-76
2022/12/06 03:27:40;;;;;;;75.60;43.42;;;5.00;1.00;;;;;;4960511;28;20393;-76
2022/12/06 03:30:11;;;;;;;73.32;37.10;;;5.00;1.00;;;;;;4965264;28;20043;-77
2022/12/06 03:32:41;;;;;;;71.90;37.80;;;5.10;6.90;;;;;;4967092;28;20046;-76
2022/12/06 03:35:12;;;;;;;71.00;38.40;;;5.00;99.90;;;;;;4943656;28;20101;-77
2022/12/06 03:37:44;;;;;;;76.13;38.45;;;5.10;99.90;;;;;;4945415;28;20083;-76
2022/12/06 03:40:18;;;;;;;73.93;41.83;;;5.10;99.90;;;;;;4946931;28;20063;-76
2022/12/06 03:42:46;;;;;;;67.60;38.97;;;5.10;1.00;;;;;;4959911;28;20046;-77
2022/12/06 03:45:14;;;;;;;72.05;37.55;;;5.10;1.00;;;;;;4945831;28;20597;-76
2022/12/06 03:47:48;;;;;;;71.18;40.50;;;5.10;1.00;;;;;;4962586;28;20089;-79
2022/12/06 03:50:22;;;;;;;94.57;50.38;;;5.10;99.90;;;;;;4961484;28;20038;-77
2022/12/06 03:52:51;;;;;;;86.95;47.30;;;5.10;1.00;;;;;;4959007;28;20093;-76
2022/12/06 03:55:19;;;;;;;89.10;45.40;;;5.10;1.00;;;;;;4960563;28;20051;-76
2022/12/06 03:57:46;;;;;;;81.55;41.78;;;5.10;1.00;;;;;;4962494;28;20039;-76
2022/12/06 04:00:15;;;;;;;65.57;35.22;;;5.10;1.00;;;;;;4960722;28;20051;-78
2022/12/06 04:02:43;;;;;;;66.53;36.67;;;5.10;1.00;;;;;;4961901;28;20047;-78
2022/12/06 04:05:10;;;;;;;73.03;41.90;;;5.10;1.00;;;;;;4961036;28;20074;-76
2022/12/06 04:07:39;;;;;;;75.32;41.65;;;5.20;99.90;;;;;;4960597;28;20113;-78
2022/12/06 04:10:07;;;;;;;77.88;43.63;;;5.20;99.90;;;;;;4962192;28;20063;-77
2022/12/06 04:15:22;;;;;;;84.85;49.35;;;5.30;1.00;;;;;;4944407;28;20049;-78
2022/12/06 04:23:17;;;;;;;78.22;45.92;;;5.40;1.00;;;;;;4960001;28;20051;-78
2022/12/06 04:25:44;;;;;;;83.53;48.63;;;5.40;1.00;;;;;;4959618;28;20038;-78
2022/12/06 04:39:12;;;;;;;85.28;47.05;;;5.50;1.00;;;;;;4957703;28;20127;-76
2022/12/06 04:44:25;;;;;;;84.97;46.95;;;5.50;1.00;;;;;;4940411;28;20491;-76
2022/12/06 04:46:52;;;;;;;79.57;47.58;;;5.50;8.10;;;;;;4957782;28;20045;-79
2022/12/06 04:49:19;;;;;;;82.65;46.20;;;5.50;1.00;;;;;;4960476;28;20041;-78
2022/12/06 04:51:47;;;;;;;81.70;45.95;;;5.50;1.00;;;;;;4942907;28;20053;-76
2022/12/06 04:54:16;;;;;;;83.90;47.58;;;5.40;1.00;;;;;;4960114;28;20043;-78
2022/12/06 04:56:44;;;;;;;78.45;46.47;;;5.50;1.00;;;;;;4960222;28;20043;-77
2022/12/06 04:59:11;;;;;;;80.40;44.35;;;5.50;1.00;;;;;;4943788;28;20051;-77
2022/12/06 05:01:38;;;;;;;67.32;40.53;;;5.60;1.00;;;;;;4960105;28;20050;-78
2022/12/06 05:04:06;;;;;;;75.90;44.63;;;5.50;1.00;;;;;;4944836;28;20491;-78
2022/12/06 05:06:33;;;;;;;76.45;44.55;;;5.60;1.00;;;;;;4961360;28;20043;-78
2022/12/06 05:09:00;;;;;;;79.45;43.85;;;5.70;1.00;;;;;;4944180;28;20049;-77
2022/12/06 05:11:29;;;;;;;84.45;46.92;;;5.70;1.00;;;;;;4963061;28;20074;-79
2022/12/06 05:13:57;;;;;;;93.68;56.40;;;5.70;1.00;;;;;;4976893;28;20047;-77
2022/12/06 05:16:24;;;;;;;104.93;60.78;;;5.80;1.00;;;;;;4959182;28;20043;-78
2022/12/06 05:18:51;;;;;;;87.32;49.70;;;5.80;1.00;;;;;;4960424;28;20049;-79
2022/12/06 05:21:21;;;;;;;92.10;52.47;;;5.90;1.00;;;;;;4961439;28;20043;-78
2022/12/06 05:23:49;;;;;;;90.50;53.35;;;5.80;1.00;;;;;;4960215;28;20067;-79
2022/12/06 05:26:18;;;;;;;88.40;49.03;;;5.90;99.90;;;;;;4949779;28;20067;-78
2022/12/06 05:28:48;;;;;;;86.65;48.38;;;5.90;99.90;;;;;;4960231;28;20043;-78
2022/12/06 05:31:16;;;;;;;82.57;43.78;;;5.80;99.90;;;;;;4962441;28;20066;-78
2022/12/06 05:33:43;;;;;;;88.05;49.00;;;5.80;99.90;;;;;;4967486;28;20053;-79
2022/12/06 05:36:13;;;;;;;90.88;53.00;;;5.80;99.90;;;;;;4975046;28;20075;-78
2022/12/06 05:38:41;;;;;;;101.60;60.20;;;5.70;1.00;;;;;;4978681;28;20090;-78
2022/12/06 05:41:09;;;;;;;97.30;56.58;;;5.70;1.00;;;;;;4967981;28;20075;-78
2022/12/06 05:43:36;;;;;;;108.05;60.97;;;5.60;1.00;;;;;;4968779;28;20097;-79
2022/12/06 05:46:05;;;;;;;118.45;68.43;;;5.60;1.00;;;;;;4964564;28;20514;-77
2022/12/06 05:48:33;;;;;;;110.93;64.18;;;5.50;1.00;;;;;;4946449;28;20495;-78
2022/12/06 05:51:00;;;;;;;118.03;67.25;;;5.40;1.00;;;;;;4946757;28;20050;-77
2022/12/06 05:53:28;;;;;;;137.93;80.72;;;5.40;78.10;;;;;;4965209;28;20078;-79
2022/12/06 05:55:55;;;;;;;126.05;74.82;;;5.30;99.90;;;;;;4963963;28;20074;-78
2022/12/06 05:58:22;;;;;;;143.05;86.68;;;5.30;99.90;;;;;;4946412;28;20051;-77
2022/12/06 06:00:50;;;;;;;148.13;94.15;;;5.30;1.00;;;;;;4964164;28;20051;-78
2022/12/06 06:03:19;;;;;;;175.05;113.88;;;5.20;99.90;;;;;;4963501;28;20043;-78
2022/12/06 06:05:48;;;;;;;170.75;108.65;;;5.20;1.00;;;;;;4946672;28;20078;-78
2022/12/06 06:08:16;;;;;;;178.60;104.93;;;5.30;1.00;;;;;;4945625;28;20459;-78
2022/12/06 06:10:43;;;;;;;193.45;107.72;;;5.30;1.00;;;;;;4963047;28;20051;-77
2022/12/06 06:13:11;;;;;;;185.77;104.72;;;5.40;1.00;;;;;;4964608;28;20055;-78
2022/12/06 06:15:38;;;;;;;178.10;101.45;;;5.50;1.00;;;;;;4947550;28;20070;-78
2022/12/06 06:18:06;;;;;;;183.98;106.15;;;5.50;1.00;;;;;;4972903;28;20051;-79
2022/12/06 06:20:36;;;;;;;200.45;116.88;;;5.60;1.00;;;;;;4947082;28;20106;-78
2022/12/06 06:23:03;;;;;;;181.25;100.25;;;5.70;1.00;;;;;;4963278;28;20563;-78
2022/12/06 06:25:30;;;;;;;198.32;104.55;;;5.80;1.00;;;;;;4963888;28;20039;-78
2022/12/06 06:27:57;;;;;;;187.55;99.20;;;5.90;99.90;;;;;;4963707;28;20036;-77
2022/12/06 06:30:25;;;;;;;182.07;99.32;;;5.80;1.00;;;;;;4963938;28;20086;-77
2022/12/06 06:32:52;;;;;;;185.65;101.28;;;5.90;1.00;;;;;;4945036;28;20102;-77
2022/12/06 06:35:19;;;;;;;192.00;104.10;;;5.80;1.00;;;;;;4964622;28;20043;-77
2022/12/06 06:37:48;;;;;;;176.27;95.65;;;5.80;1.00;;;;;;4963280;28;20057;-79
2022/12/06 06:40:17;;;;;;;176.00;100.80;;;5.80;1.00;;;;;;4964713;28;20507;-80
2022/12/06 06:42:44;;;;;;;192.38;106.75;;;5.80;1.00;;;;;;4963540;28;20043;-77
2022/12/06 06:45:13;;;;;;;185.60;105.30;;;5.80;1.00;;;;;;4946009;28;20047;-78
2022/12/06 06:47:40;;;;;;;177.20;101.78;;;5.90;1.00;;;;;;4964413;28;20475;-78
2022/12/06 06:50:08;;;;;;;148.18;89.30;;;5.90;1.00;;;;;;4963700;28;20043;-77
2022/12/06 06:52:35;;;;;;;171.10;96.82;;;6.10;1.00;;;;;;4946383;28;20501;-79
2022/12/06 06:55:05;;;;;;;169.63;91.45;;;6.20;1.00;;;;;;4947294;28;20289;-77
2022/12/06 06:57:34;;;;;;;195.50;109.28;;;6.30;1.00;;;;;;4946219;28;20106;-78
2022/12/06 07:00:01;;;;;;;197.63;109.03;;;6.30;99.90;;;;;;4945624;28;20102;-77
2022/12/06 07:02:28;;;;;;;203.00;109.00;;;6.40;99.90;;;;;;4961842;28;20086;-78
2022/12/06 07:04:55;;;;;;;177.90;101.63;;;6.40;1.00;;;;;;4962551;28;20138;-79
2022/12/06 07:07:23;;;;;;;182.25;101.07;;;6.50;1.00;;;;;;4963964;28;20114;-78
2022/12/06 07:09:50;;;;;;;177.30;100.32;;;6.50;1.00;;;;;;4965305;28;20070;-80
2022/12/06 07:12:19;;;;;;;188.10;105.88;;;6.50;1.00;;;;;;4961371;28;20094;-79
2022/12/06 07:14:46;;;;;;;204.52;112.15;;;6.60;1.00;;;;;;4963008;28;20043;-78
2022/12/06 07:17:13;;;;;;;221.68;120.57;;;6.60;1.00;;;;;;4965626;28;20047;-83
2022/12/06 07:19:41;;;;;;;217.45;122.78;;;6.80;1.00;;;;;;4948124;28;20043;-80
2022/12/06 07:22:09;;;;;;;224.88;125.65;;;6.80;99.90;;;;;;4962830;28;20058;-79
2022/12/06 07:24:36;;;;;;;234.73;128.77;;;7.00;1.00;;;;;;4967509;28;20343;-78
2022/12/06 07:27:03;;;;;;;236.05;131.27;;;7.10;99.90;;;;;;4963012;28;20185;-77
2022/12/06 07:29:33;;;;;;;235.95;133.15;;;7.20;1.00;;;;;;4963382;28;20043;-79
2022/12/06 07:32:01;;;;;;;235.10;134.13;;;7.40;1.00;;;;;;4961887;28;20098;-77
2022/12/06 07:34:28;;;;;;;225.45;123.00;;;7.60;1.00;;;;;;4976375;28;20047;-79
2022/12/06 07:36:56;;;;;;;199.88;111.95;;;7.60;1.00;;;;;;4952330;28;20499;-79
2022/12/06 07:39:23;;;;;;;177.95;101.25;;;7.70;1.00;;;;;;4947534;28;20570;-79
2022/12/06 07:47:41;;;;;;;147.05;82.38;;;7.90;99.90;;;;;;4924133;29;20058;-78
2022/12/06 07:50:12;;;;;;;140.20;79.88;;;8.00;3.40;;;;;;4953178;28;20059;-79
2022/12/06 07:52:41;;;;;;;129.07;73.95;;;8.20;1.00;;;;;;4960826;28;20074;-79
2022/12/06 07:55:10;;;;;;;122.53;70.72;;;8.30;99.90;;;;;;4962694;28;20074;-81
2022/12/06 07:57:37;;;;;;;101.38;58.17;;;8.40;57.60;;;;;;4963133;28;20043;-79
2022/12/06 08:00:09;;;;;;;98.32;56.78;;;8.60;1.00;;;;;;4964309;28;20062;-80
2022/12/06 08:02:39;;;;;;;103.47;58.55;;;8.70;1.00;;;;;;4958359;28;20047;-80
2022/12/06 08:05:07;;;;;;;94.22;55.05;;;8.90;1.00;;;;;;4962410;28;20039;-78
2022/12/06 08:07:34;;;;;;;107.10;56.15;;;9.20;99.90;;;;;;4946209;28;20126;-78
2022/12/06 08:10:02;;;;;;;102.72;55.05;;;9.40;1.00;;;;;;4961755;28;20122;-79
2022/12/06 08:12:31;;;;;;;95.70;54.38;;;9.60;71.30;;;;;;4962407;28;20043;-80
2022/12/06 08:15:00;;;;;;;78.72;47.58;;;9.70;1.00;;;;;;4962716;28;20095;-79
2022/12/06 08:17:30;;;;;;;88.15;49.83;;;9.70;1.00;;;;;;4963146;28;20081;-80
2022/12/06 08:19:57;;;;;;;95.32;50.33;;;9.80;1.00;;;;;;4961274;28;20182;-79
2022/12/06 08:22:24;;;;;;;87.53;51.42;;;9.80;1.00;;;;;;4962107;28;20100;-79
2022/12/06 08:24:52;;;;;;;90.38;50.72;;;9.80;1.00;;;;;;4949699;28;20043;-78
2022/12/06 08:27:19;;;;;;;101.18;59.65;;;9.90;1.00;;;;;;4962570;28;20035;-79
2022/12/06 08:29:46;;;;;;;121.68;68.72;;;9.90;1.00;;;;;;4962065;28;20046;-78
2022/12/06 08:32:14;;;;;;;106.10;59.28;;;10.10;1.00;;;;;;4963804;28;20047;-80
2022/12/06 08:34:43;;;;;;;87.82;54.25;;;10.10;99.90;;;;;;4945309;28;20584;-79
2022/12/06 08:37:11;;;;;;;95.78;55.03;;;10.20;1.00;;;;;;4981119;23;20043;-81
2022/12/06 08:39:39;;;;;;;100.18;55.05;;;10.20;99.90;;;;;;4980857;28;20051;-80
2022/12/06 08:42:06;;;;;;;91.95;55.60;;;10.20;99.90;;;;;;4961072;28;20050;-80
2022/12/06 08:44:35;;;;;;;94.32;58.03;;;10.10;99.90;;;;;;4978573;28;20046;-80
2022/12/06 08:47:03;;;;;;;110.30;68.53;;;10.00;1.00;;;;;;4961282;28;20081;-81
2022/12/06 08:49:31;;;;;;;111.05;70.93;;;9.90;1.00;;;;;;4961591;28;20043;-81
2022/12/06 08:52:00;;;;;;;111.97;71.68;;;9.90;2.10;;;;;;4959141;28;20458;-79
2022/12/06 08:54:28;;;;;;;115.70;70.88;;;10.00;1.00;;;;;;4959716;28;20047;-79
2022/12/06 08:56:56;;;;;;;119.50;73.15;;;10.10;1.00;;;;;;4960190;28;20046;-80
2022/12/06 08:59:23;;;;;;;120.15;70.80;;;10.20;1.00;;;;;;4943224;28;20067;-79
2022/12/06 09:01:51;;;;;;;116.93;67.72;;;10.30;91.20;;;;;;4943383;28;20066;-79
2022/12/06 09:04:18;;;;;;;114.68;61.47;;;10.50;1.00;;;;;;4960436;28;20045;-78
2022/12/06 09:06:46;;;;;;;101.65;61.13;;;10.70;1.00;;;;;;4960164;28;20452;-80
2022/12/06 09:09:17;;;;;;;95.50;57.67;;;10.90;1.00;;;;;;4960464;28;20051;-79
2022/12/06 09:11:46;;;;;;;100.22;58.97;;;11.10;99.90;;;;;;4960838;28;20443;-79
2022/12/06 09:14:16;;;;;;;98.38;58.13;;;11.30;91.20;;;;;;4963844;28;20498;-79
2022/12/06 09:16:44;;;;;;;96.18;58.50;;;11.40;99.90;;;;;;4946203;28;20408;-78
2022/12/06 09:19:12;;;;;;;94.97;57.53;;;11.50;1.00;;;;;;4963910;28;20455;-79
2022/12/06 09:21:41;;;;;;;92.55;57.85;;;11.50;1.00;;;;;;4964653;28;20522;-80
2022/12/06 09:24:11;;;;;;;90.10;56.85;;;11.30;99.90;;;;;;4969649;28;20047;-80
2022/12/06 09:26:40;;;;;;;89.72;55.15;;;11.30;99.90;;;;;;4966335;28;20046;-80
2022/12/06 09:29:07;;;;;;;85.50;53.08;;;11.40;1.00;;;;;;4964738;28;20039;-81
2022/12/06 09:31:38;;;;;;;86.82;55.75;;;11.60;1.00;;;;;;4963721;28;20078;-80
2022/12/06 09:34:06;;;;;;;88.45;57.50;;;11.80;1.00;;;;;;4963164;28;20077;-78
2022/12/06 09:36:35;;;;;;;97.43;59.92;;;11.80;1.00;;;;;;4963854;28;20121;-79
2022/12/06 09:39:10;;;;;;;95.70;59.08;;;11.80;1.00;;;;;;4963446;28;20042;-78
2022/12/06 09:42:15;;;;;;;85.22;56.25;;;11.80;1.00;;;;;;4964413;28;20091;-79
2022/12/06 09:45:01;;;;;;;102.97;66.43;;;11.80;31.40;;;;;;4964104;28;20050;-81
2022/12/06 09:47:41;;;;;;;122.80;79.05;;;11.70;1.00;;;;;;4964880;28;20046;-79
2022/12/06 09:50:18;;;;;;;115.22;72.93;;;11.50;99.90;;;;;;4961794;28;20403;-79
2022/12/06 09:53:05;;;;;;;115.47;69.60;;;11.40;99.90;;;;;;4962600;28;20043;-78
2022/12/06 09:55:47;;;;;;;111.60;62.08;;;11.20;1.00;;;;;;4964071;28;20048;-79
2022/12/06 09:58:26;;;;;;;94.47;56.00;;;11.20;1.00;;;;;;4967329;28;20046;-79
2022/12/06 10:01:13;;;;;;;84.88;54.75;;;11.10;1.00;;;;;;4966349;28;20042;-81
2022/12/06 10:03:57;;;;;;;74.93;48.10;;;11.10;1.00;;;;;;4946532;28;20399;-79
2022/12/06 10:06:31;;;;;;;73.95;44.00;;;11.00;53.90;;;;;;4964303;28;20148;-81
2022/12/06 10:09:16;;;;;;;70.47;46.25;;;10.90;99.90;;;;;;4946259;28;20097;-79
2022/12/06 10:11:57;;;;;;;71.00;43.80;;;10.90;99.90;;;;;;4962575;28;20047;-80
2022/12/06 10:14:44;;;;;;;70.32;47.08;;;10.80;1.00;;;;;;4962413;28;20089;-79
2022/12/06 10:17:22;;;;;;;74.10;46.35;;;10.70;54.80;;;;;;4963306;28;20047;-80
2022/12/06 10:20:03;;;;;;;78.53;51.00;;;10.80;1.00;;;;;;4962344;28;20281;-80
2022/12/06 10:22:42;;;;;;;82.97;49.22;;;10.80;1.00;;;;;;4962773;28;20054;-78
2022/12/06 10:25:15;;;;;;;91.72;58.15;;;10.70;79.10;;;;;;4961837;28;20035;-80
2022/12/06 10:27:49;;;;;;;94.57;55.22;;;10.70;99.90;;;;;;4944496;28;20139;-79
2022/12/06 10:30:20;;;;;;;87.32;57.15;;;10.60;99.90;;;;;;4963930;28;20046;-80
2022/12/06 10:32:53;;;;;;;86.30;54.70;;;10.60;1.00;;;;;;4961403;28;20046;-80
2022/12/06 10:35:31;;;;;;;91.90;57.80;;;10.60;54.20;;;;;;4962669;28;20264;-81
2022/12/06 10:38:06;;;;;;;94.20;58.10;;;10.60;99.90;;;;;;4962594;28;20055;-79
2022/12/06 10:40:46;;;;;;;93.70;59.40;;;10.50;1.00;;;;;;4963590;28;20110;-80
2022/12/06 10:43:20;;;;;;;98.70;60.70;;;10.40;1.00;;;;;;4961673;28;20336;-81
2022/12/06 10:48:49;;;;;;;97.43;64.97;;;10.20;99.90;;;;;;4963188;28;20074;-81
2022/12/06 10:51:22;;;;;;;100.55;66.22;;;10.20;99.90;;;;;;4962047;28;20047;-79
2022/12/06 10:53:55;;;;;;;111.18;68.07;;;10.20;1.00;;;;;;4963160;28;20090;-82
2022/12/06 10:56:26;;;;;;;106.20;65.80;;;10.20;1.00;;;;;;4963160;28;20479;-80
2022/12/06 10:58:59;;;;;;;103.28;66.28;;;10.20;1.00;;;;;;4963225;28;20503;-79
2022/12/06 11:01:32;;;;;;;107.25;64.43;;;10.20;1.00;;;;;;4945776;28;20050;-79
2022/12/06 11:04:03;;;;;;;115.68;79.78;;;10.20;1.00;;;;;;4962147;28;20039;-81
2022/12/06 11:06:35;;;;;;;116.85;78.18;;;10.30;1.00;;;;;;4962468;28;20057;-80
2022/12/06 11:09:14;;;;;;;117.18;75.72;;;10.40;1.00;;;;;;4960956;28;20046;-81
2022/12/06 11:11:44;;;;;;;123.85;80.45;;;10.40;99.90;;;;;;4963010;28;20435;-82
2022/12/06 11:14:22;;;;;;;113.13;74.20;;;10.40;99.90;;;;;;4944485;28;20047;-81
2022/12/06 11:16:55;;;;;;;120.05;81.40;;;10.40;99.90;;;;;;4962915;28;20035;-78
2022/12/06 11:19:30;;;;;;;133.07;86.63;;;10.40;1.00;;;;;;4960444;28;20353;-80
2022/12/06 11:22:04;;;;;;;130.98;87.43;;;10.40;1.00;;;;;;4960344;28;20082;-79
2022/12/06 11:24:38;;;;;;;131.73;87.57;;;10.40;1.00;;;;;;4961550;28;20487;-78
2022/12/06 11:27:14;;;;;;;136.85;94.45;;;10.40;99.90;;;;;;4962528;28;20044;-78
2022/12/06 11:29:43;;;;;;;127.05;85.60;;;10.30;1.00;;;;;;4961410;28;20133;-79
2022/12/06 11:32:15;;;;;;;98.47;67.50;;;10.20;1.00;;;;;;4960516;28;20047;-77
2022/12/06 11:34:46;;;;;;;71.60;48.92;;;10.20;1.00;;;;;;4961121;28;20510;-78
2022/12/06 11:37:17;;;;;;;88.00;58.72;;;10.20;1.00;;;;;;4958461;28;20059;-79
2022/12/06 11:39:45;;;;;;;100.13;70.10;;;10.10;1.00;;;;;;4962043;28;20097;-79
2022/12/06 11:42:16;;;;;;;147.32;95.28;;;10.10;99.90;;;;;;4962978;28;20399;-77
2022/12/06 11:44:47;;;;;;;171.50;114.15;;;10.10;1.00;;;;;;4962661;28;20105;-80
2022/12/06 11:47:20;;;;;;;181.88;120.78;;;10.00;1.00;;;;;;4958840;28;20070;-79
2022/12/06 11:49:49;;;;;;;176.25;118.10;;;9.90;34.30;;;;;;4945323;28;20484;-77
2022/12/06 11:52:21;;;;;;;148.18;99.63;;;10.00;99.90;;;;;;4960125;28;20042;-79
2022/12/06 11:54:55;;;;;;;129.07;89.95;;;9.90;99.90;;;;;;4944272;28;20102;-79
2022/12/06 11:57:25;;;;;;;120.57;79.28;;;9.80;99.90;;;;;;4942389;28;20047;-77
2022/12/06 12:00:15;;;;;;;112.60;75.60;;;9.90;99.90;;;;;;4960916;28;20135;-78
2022/12/06 12:02:46;;;;;;;122.68;80.78;;;10.00;99.90;;;;;;4960482;28;20043;-78
2022/12/06 12:05:20;;;;;;;127.88;85.25;;;10.10;99.90;;;;;;4960821;28;20039;-77
2022/12/06 12:07:52;;;;;;;129.63;82.10;;;10.10;99.90;;;;;;4960595;28;20130;-79
2022/12/06 12:10:33;;;;;;;124.90;84.50;;;10.10;99.90;;;;;;4960176;28;20039;-78
2022/12/06 12:16:13;;;;;;;109.93;73.93;;;10.10;99.90;;;;;;4965857;28;20046;-79
2022/12/06 12:18:51;;;;;;;107.32;74.38;;;9.90;99.90;;;;;;4969151;28;20050;-78
2022/12/06 12:21:29;;;;;;;106.05;70.53;;;10.10;99.90;;;;;;4969419;28;20051;-78
2022/12/06 12:23:57;;;;;;;104.40;69.28;;;10.20;99.90;;;;;;4966365;28;20043;-79
2022/12/06 12:26:33;;;;;;;102.93;69.50;;;10.30;99.90;;;;;;4963887;28;20577;-78
2022/12/06 12:29:14;;;;;;;101.70;67.95;;;10.40;99.90;;;;;;4965218;28;20038;-79
2022/12/06 12:31:53;;;;;;;112.82;73.65;;;10.50;99.90;;;;;;4962436;28;20049;-79
2022/12/06 12:34:24;;;;;;;95.93;63.53;;;10.50;99.90;;;;;;4959994;28;20039;-80
2022/12/06 12:36:54;;;;;;;93.63;65.75;;;10.50;99.90;;;;;;4962163;28;20051;-80
2022/12/06 12:39:33;;;;;;;100.32;68.65;;;10.50;99.90;;;;;;4960875;28;20121;-81
2022/12/06 12:42:01;;;;;;;96.90;63.95;;;10.50;99.90;;;;;;4950915;28;20047;-80
2022/12/06 12:44:32;;;;;;;95.43;63.20;;;10.50;99.90;;;;;;4960608;28;20097;-81
2022/12/06 12:47:01;;;;;;;96.22;67.68;;;10.50;99.90;;;;;;4961021;28;20151;-79
2022/12/06 12:49:34;;;;;;;126.72;91.30;;;10.40;99.90;;;;;;4964034;28;20035;-77
2022/12/06 12:52:03;;;;;;;165.85;111.57;;;10.40;99.90;;;;;;4963302;28;20416;-76
2022/12/06 12:54:33;;;;;;;162.35;109.35;;;10.40;99.90;;;;;;4964450;28;20046;-78
2022/12/06 12:57:02;;;;;;;154.65;106.82;;;10.30;99.90;;;;;;4963167;28;20054;-78
2022/12/06 12:59:37;;;;;;;163.75;113.75;;;10.30;99.90;;;;;;4963253;28;20488;-79
2022/12/06 13:02:14;;;;;;;179.82;120.13;;;10.30;99.90;;;;;;4963968;28;20051;-77
2022/12/06 13:04:46;;;;;;;194.15;132.98;;;10.30;99.90;;;;;;4963946;28;20039;-79
2022/12/06 13:07:22;;;;;;;162.75;110.05;;;10.30;99.90;;;;;;4947004;28;20058;-77
2022/12/06 13:09:56;;;;;;;139.73;97.20;;;10.30;99.90;;;;;;4961774;28;20043;-77
2022/12/06 13:12:29;;;;;;;119.20;82.25;;;10.40;99.90;;;;;;4964441;28;20043;-78
2022/12/06 13:15:02;;;;;;;102.68;70.80;;;10.50;99.90;;;;;;4964246;28;20069;-78
2022/12/06 13:17:34;;;;;;;109.28;77.50;;;10.60;99.90;;;;;;4953445;28;20117;-77
2022/12/06 13:20:14;;;;;;;109.65;72.55;;;10.70;99.90;;;;;;4945591;28;20201;-78
2022/12/06 13:22:46;;;;;;;113.03;80.15;;;10.90;99.90;;;;;;4963298;28;20085;-77